Big Prairie, Ohio
Current Conditions -  °F | °C
As of 11:52 PM on Tuesday 25 Nov 2014 (Local Time) from KMFD Reporting Station
Overcast Overcast  
Wind Chill: 22°   Ceiling: 1500
Heat Index: 28°   Visibility: 10mi
Dew Point: 23°   Wind: 6mph
Humidity: 81%   Direction: 360°N
Pressure: 30.17"   Gusts: NA
Location:  40.67°N, 82.09°W
Report Text: KMFD 260452Z AUTO 36005KT 10SM OVC015 M02/M05 A3017 RMK AO2 SLP228 T10221050 400221022
Loading
Personal Weather Stations






























Interactive Weather Map New forecast layout! Learn more

10-Day Weather Forecast

Advertisements
Track Severe Weather on mobile